sensor_id;sensor_type;location;lat;lon;timestamp;temperature;humidity
18777;DHT22;9517;51.174;4.160;2023-04-03T00:02:11;3.20;99.90
18777;DHT22;9517;51.174;4.160;2023-04-03T00:04:38;3.20;99.90
18777;DHT22;9517;51.174;4.160;2023-04-03T00:07:05;3.20;99.90
18777;DHT22;9517;51.174;4.160;2023-04-03T00:09:32;3.20;99.90
18777;DHT22;9517;51.174;4.160;2023-04-03T00:11:59;3.30;99.90
18777;DHT22;9517;51.174;4.160;2023-04-03T00:14:26;3.20;99.90
18777;DHT22;9517;51.174;4.160;2023-04-03T00:16:54;3.10;99.90
18777;DHT22;9517;51.174;4.160;2023-04-03T00:19:22;3.10;99.90
18777;DHT22;9517;51.174;4.160;2023-04-03T00:21:49;3.10;99.90
18777;DHT22;9517;51.174;4.160;2023-04-03T00:24:16;3.00;99.90
18777;DHT22;9517;51.174;4.160;2023-04-03T00:26:43;2.90;99.90
18777;DHT22;9517;51.174;4.160;2023-04-03T00:29:10;3.00;99.90
18777;DHT22;9517;51.174;4.160;2023-04-03T00:31:37;2.90;99.90
18777;DHT22;9517;51.174;4.160;2023-04-03T00:34:04;3.00;99.90
18777;DHT22;9517;51.174;4.160;2023-04-03T00:36:33;3.00;99.90
18777;DHT22;9517;51.174;4.160;2023-04-03T00:39:00;3.00;99.90
18777;DHT22;9517;51.174;4.160;2023-04-03T00:41:27;2.90;99.90
18777;DHT22;9517;51.174;4.160;2023-04-03T00:43:54;2.80;99.90
18777;DHT22;9517;51.174;4.160;2023-04-03T00:46:21;2.70;99.90
18777;DHT22;9517;51.174;4.160;2023-04-03T00:48:48;2.60;99.90
18777;DHT22;9517;51.174;4.160;2023-04-03T00:51:18;2.70;99.90
18777;DHT22;9517;51.174;4.160;2023-04-03T00:53:50;2.60;99.90
18777;DHT22;9517;51.174;4.160;2023-04-03T00:56:21;2.60;99.90
18777;DHT22;9517;51.174;4.160;2023-04-03T00:58:52;2.60;99.90
18777;DHT22;9517;51.174;4.160;2023-04-03T01:01:23;2.60;99.90
18777;DHT22;9517;51.174;4.160;2023-04-03T01:03:51;2.60;99.90
18777;DHT22;9517;51.174;4.160;2023-04-03T01:06:23;2.70;99.90
18777;DHT22;9517;51.174;4.160;2023-04-03T01:08:53;2.70;99.90
18777;DHT22;9517;51.174;4.160;2023-04-03T01:11:21;2.70;99.90
18777;DHT22;9517;51.174;4.160;2023-04-03T01:13:48;2.60;99.90
18777;DHT22;9517;51.174;4.160;2023-04-03T01:16:15;2.50;99.90
18777;DHT22;9517;51.174;4.160;2023-04-03T01:18:43;2.60;99.90
18777;DHT22;9517;51.174;4.160;2023-04-03T01:24:35;2.70;99.90
18777;DHT22;9517;51.174;4.160;2023-04-03T01:27:05;2.70;99.90
18777;DHT22;9517;51.174;4.160;2023-04-03T01:29:33;2.80;99.90
18777;DHT22;9517;51.174;4.160;2023-04-03T01:32:02;2.80;99.90
18777;DHT22;9517;51.174;4.160;2023-04-03T01:34:30;2.70;99.90
18777;DHT22;9517;51.174;4.160;2023-04-03T01:36:57;2.80;99.90
18777;DHT22;9517;51.174;4.160;2023-04-03T01:39:24;2.80;99.90
18777;DHT22;9517;51.174;4.160;2023-04-03T01:41:51;2.70;99.90
18777;DHT22;9517;51.174;4.160;2023-04-03T01:44:18;2.70;99.90
18777;DHT22;9517;51.174;4.160;2023-04-03T01:46:45;2.70;99.90
18777;DHT22;9517;51.174;4.160;2023-04-03T01:49:14;2.60;99.90
18777;DHT22;9517;51.174;4.160;2023-04-03T01:51:41;2.50;99.90
18777;DHT22;9517;51.174;4.160;2023-04-03T01:54:08;2.50;99.90
18777;DHT22;9517;51.174;4.160;2023-04-03T01:56:35;2.50;99.90
18777;DHT22;9517;51.174;4.160;2023-04-03T01:59:04;2.50;99.90
18777;DHT22;9517;51.174;4.160;2023-04-03T02:01:31;2.60;99.90
18777;DHT22;9517;51.174;4.160;2023-04-03T02:03:58;2.60;99.90
18777;DHT22;9517;51.174;4.160;2023-04-03T02:06:27;2.60;99.90
18777;DHT22;9517;51.174;4.160;2023-04-03T02:08:54;2.50;99.90
18777;DHT22;9517;51.174;4.160;2023-04-03T02:11:21;2.40;99.90
18777;DHT22;9517;51.174;4.160;2023-04-03T02:13:48;2.40;99.90
18777;DHT22;9517;51.174;4.160;2023-04-03T02:16:15;2.40;99.90
18777;DHT22;9517;51.174;4.160;2023-04-03T02:18:42;2.40;99.90
18777;DHT22;9517;51.174;4.160;2023-04-03T02:21:09;2.30;99.90
18777;DHT22;9517;51.174;4.160;2023-04-03T02:23:38;2.40;99.90
18777;DHT22;9517;51.174;4.160;2023-04-03T02:26:06;2.40;99.90
18777;DHT22;9517;51.174;4.160;2023-04-03T02:28:34;2.20;99.90
18777;DHT22;9517;51.174;4.160;2023-04-03T02:31:01;2.20;99.90
18777;DHT22;9517;51.174;4.160;2023-04-03T02:33:28;2.20;99.90
18777;DHT22;9517;51.174;4.160;2023-04-03T02:35:56;2.10;99.90
18777;DHT22;9517;51.174;4.160;2023-04-03T02:38:24;2.30;99.90
18777;DHT22;9517;51.174;4.160;2023-04-03T02:40:52;2.30;99.90
18777;DHT22;9517;51.174;4.160;2023-04-03T02:43:19;2.20;99.90
18777;DHT22;9517;51.174;4.160;2023-04-03T02:45:46;2.20;99.90
18777;DHT22;9517;51.174;4.160;2023-04-03T02:48:13;2.10;99.90
18777;DHT22;9517;51.174;4.160;2023-04-03T02:50:42;2.10;99.90
18777;DHT22;9517;51.174;4.160;2023-04-03T02:53:09;2.10;99.90
18777;DHT22;9517;51.174;4.160;2023-04-03T02:55:36;2.20;99.90
18777;DHT22;9517;51.174;4.160;2023-04-03T02:58:04;2.20;99.90
18777;DHT22;9517;51.174;4.160;2023-04-03T03:00:32;2.10;99.90
18777;DHT22;9517;51.174;4.160;2023-04-03T03:02:59;2.00;99.90
18777;DHT22;9517;51.174;4.160;2023-04-03T03:05:26;1.90;99.90
18777;DHT22;9517;51.174;4.160;2023-04-03T03:07:54;1.90;99.90
18777;DHT22;9517;51.174;4.160;2023-04-03T03:10:21;1.90;99.90
18777;DHT22;9517;51.174;4.160;2023-04-03T03:12:49;2.00;99.90
18777;DHT22;9517;51.174;4.160;2023-04-03T03:15:18;2.10;99.90
18777;DHT22;9517;51.174;4.160;2023-04-03T03:17:45;2.10;99.90
18777;DHT22;9517;51.174;4.160;2023-04-03T03:20:13;2.00;99.90
18777;DHT22;9517;51.174;4.160;2023-04-03T03:22:41;2.00;99.90
18777;DHT22;9517;51.174;4.160;2023-04-03T03:25:08;1.90;99.90
18777;DHT22;9517;51.174;4.160;2023-04-03T03:27:36;1.90;99.90
18777;DHT22;9517;51.174;4.160;2023-04-03T03:30:04;1.90;99.90
18777;DHT22;9517;51.174;4.160;2023-04-03T03:32:32;2.00;99.90
18777;DHT22;9517;51.174;4.160;2023-04-03T03:34:59;2.00;99.90
18777;DHT22;9517;51.174;4.160;2023-04-03T03:37:26;2.00;99.90
18777;DHT22;9517;51.174;4.160;2023-04-03T03:39:54;2.00;99.90
18777;DHT22;9517;51.174;4.160;2023-04-03T03:42:21;2.10;99.90
18777;DHT22;9517;51.174;4.160;2023-04-03T03:44:48;2.00;99.90
18777;DHT22;9517;51.174;4.160;2023-04-03T03:47:15;2.00;99.90
18777;DHT22;9517;51.174;4.160;2023-04-03T03:49:43;1.90;99.90
18777;DHT22;9517;51.174;4.160;2023-04-03T03:52:10;1.80;99.90
18777;DHT22;9517;51.174;4.160;2023-04-03T03:54:37;1.60;99.90
18777;DHT22;9517;51.174;4.160;2023-04-03T03:57:05;1.70;99.90
18777;DHT22;9517;51.174;4.160;2023-04-03T03:59:32;1.70;99.90
18777;DHT22;9517;51.174;4.160;2023-04-03T04:01:59;1.60;99.90
18777;DHT22;9517;51.174;4.160;2023-04-03T04:04:26;1.60;99.90
18777;DHT22;9517;51.174;4.160;2023-04-03T04:06:54;1.60;99.90
18777;DHT22;9517;51.174;4.160;2023-04-03T04:09:22;1.40;99.90
18777;DHT22;9517;51.174;4.160;2023-04-03T04:11:49;1.40;99.90
18777;DHT22;9517;51.174;4.160;2023-04-03T04:14:16;1.50;99.90
18777;DHT22;9517;51.174;4.160;2023-04-03T04:16:43;1.50;99.90
18777;DHT22;9517;51.174;4.160;2023-04-03T04:19:10;1.50;99.90
18777;DHT22;9517;51.174;4.160;2023-04-03T04:21:37;1.50;99.90
18777;DHT22;9517;51.174;4.160;2023-04-03T04:24:07;1.50;99.90
18777;DHT22;9517;51.174;4.160;2023-04-03T04:26:34;1.40;99.90
18777;DHT22;9517;51.174;4.160;2023-04-03T04:29:01;1.40;99.90
18777;DHT22;9517;51.174;4.160;2023-04-03T04:31:28;1.30;99.90
18777;DHT22;9517;51.174;4.160;2023-04-03T04:33:55;1.30;99.90
18777;DHT22;9517;51.174;4.160;2023-04-03T04:36:22;1.30;99.90
18777;DHT22;9517;51.174;4.160;2023-04-03T04:38:49;1.30;99.90
18777;DHT22;9517;51.174;4.160;2023-04-03T04:41:20;1.20;99.90
18777;DHT22;9517;51.174;4.160;2023-04-03T04:43:47;1.30;99.90
18777;DHT22;9517;51.174;4.160;2023-04-03T04:46:15;1.30;99.90
18777;DHT22;9517;51.174;4.160;2023-04-03T04:48:42;1.30;99.90
18777;DHT22;9517;51.174;4.160;2023-04-03T04:51:09;1.40;99.90
18777;DHT22;9517;51.174;4.160;2023-04-03T04:53:37;1.50;99.90
18777;DHT22;9517;51.174;4.160;2023-04-03T04:56:04;1.50;99.90
18777;DHT22;9517;51.174;4.160;2023-04-03T04:58:33;1.50;99.90
18777;DHT22;9517;51.174;4.160;2023-04-03T05:01:00;1.60;99.90
18777;DHT22;9517;51.174;4.160;2023-04-03T05:03:28;1.60;99.90
18777;DHT22;9517;51.174;4.160;2023-04-03T05:05:55;1.50;99.90
18777;DHT22;9517;51.174;4.160;2023-04-03T05:08:23;1.50;99.90
18777;DHT22;9517;51.174;4.160;2023-04-03T05:10:52;1.50;99.90
18777;DHT22;9517;51.174;4.160;2023-04-03T05:13:19;1.50;99.90
18777;DHT22;9517;51.174;4.160;2023-04-03T05:15:48;1.50;99.90
18777;DHT22;9517;51.174;4.160;2023-04-03T05:18:15;1.40;99.90
18777;DHT22;9517;51.174;4.160;2023-04-03T05:20:42;1.40;99.90
18777;DHT22;9517;51.174;4.160;2023-04-03T05:23:09;1.30;99.90
18777;DHT22;9517;51.174;4.160;2023-04-03T05:25:37;1.30;99.90
18777;DHT22;9517;51.174;4.160;2023-04-03T05:28:04;1.30;99.90
18777;DHT22;9517;51.174;4.160;2023-04-03T05:30:32;1.20;99.90
18777;DHT22;9517;51.174;4.160;2023-04-03T05:33:01;1.20;99.90
18777;DHT22;9517;51.174;4.160;2023-04-03T05:35:28;1.10;99.90
18777;DHT22;9517;51.174;4.160;2023-04-03T05:37:55;1.10;99.90
18777;DHT22;9517;51.174;4.160;2023-04-03T05:40:22;1.10;99.90
18777;DHT22;9517;51.174;4.160;2023-04-03T05:42:49;1.20;99.90
18777;DHT22;9517;51.174;4.160;2023-04-03T05:45:19;1.30;99.90
18777;DHT22;9517;51.174;4.160;2023-04-03T05:47:46;1.40;99.90
18777;DHT22;9517;51.174;4.160;2023-04-03T05:50:14;1.40;99.90
18777;DHT22;9517;51.174;4.160;2023-04-03T05:52:44;1.30;99.90
18777;DHT22;9517;51.174;4.160;2023-04-03T05:55:12;1.50;99.90
18777;DHT22;9517;51.174;4.160;2023-04-03T05:57:39;1.50;99.90
18777;DHT22;9517;51.174;4.160;2023-04-03T06:00:08;1.60;99.90
18777;DHT22;9517;51.174;4.160;2023-04-03T06:02:36;1.70;99.90
18777;DHT22;9517;51.174;4.160;2023-04-03T06:05:03;1.80;99.90
18777;DHT22;9517;51.174;4.160;2023-04-03T06:07:32;1.90;99.90
18777;DHT22;9517;51.174;4.160;2023-04-03T06:09:59;1.80;99.90
18777;DHT22;9517;51.174;4.160;2023-04-03T06:12:26;2.00;99.90
18777;DHT22;9517;51.174;4.160;2023-04-03T06:14:54;2.00;99.90
18777;DHT22;9517;51.174;4.160;2023-04-03T06:17:21;2.20;99.90
18777;DHT22;9517;51.174;4.160;2023-04-03T06:19:49;2.30;99.90
18777;DHT22;9517;51.174;4.160;2023-04-03T06:22:16;2.50;99.90
18777;DHT22;9517;51.174;4.160;2023-04-03T06:24:44;2.60;99.90
18777;DHT22;9517;51.174;4.160;2023-04-03T06:27:12;2.70;99.90
18777;DHT22;9517;51.174;4.160;2023-04-03T06:29:39;2.80;99.90
18777;DHT22;9517;51.174;4.160;2023-04-03T06:32:06;3.00;99.90
18777;DHT22;9517;51.174;4.160;2023-04-03T06:34:33;3.20;99.90
18777;DHT22;9517;51.174;4.160;2023-04-03T06:37:00;3.50;99.90
18777;DHT22;9517;51.174;4.160;2023-04-03T06:39:28;3.40;99.90
18777;DHT22;9517;51.174;4.160;2023-04-03T06:42:04;3.50;99.90
18777;DHT22;9517;51.174;4.160;2023-04-03T06:44:32;3.60;99.90
18777;DHT22;9517;51.174;4.160;2023-04-03T06:47:01;3.70;99.90
18777;DHT22;9517;51.174;4.160;2023-04-03T06:49:28;3.90;99.90
18777;DHT22;9517;51.174;4.160;2023-04-03T06:51:56;3.90;99.90
18777;DHT22;9517;51.174;4.160;2023-04-03T06:54:24;3.90;99.90
18777;DHT22;9517;51.174;4.160;2023-04-03T06:56:53;4.20;99.90
18777;DHT22;9517;51.174;4.160;2023-04-03T06:59:27;4.40;99.90
18777;DHT22;9517;51.174;4.160;2023-04-03T07:01:55;4.50;99.90
18777;DHT22;9517;51.174;4.160;2023-04-03T07:04:22;4.60;99.90
18777;DHT22;9517;51.174;4.160;2023-04-03T07:06:49;4.80;99.90
18777;DHT22;9517;51.174;4.160;2023-04-03T07:09:16;4.90;99.90
18777;DHT22;9517;51.174;4.160;2023-04-03T07:11:44;4.90;99.90
18777;DHT22;9517;51.174;4.160;2023-04-03T07:14:12;5.00;99.90
18777;DHT22;9517;51.174;4.160;2023-04-03T07:16:49;5.00;99.90
18777;DHT22;9517;51.174;4.160;2023-04-03T07:19:17;5.10;99.90
18777;DHT22;9517;51.174;4.160;2023-04-03T07:21:45;5.30;99.90
18777;DHT22;9517;51.174;4.160;2023-04-03T07:24:26;5.40;99.90
18777;DHT22;9517;51.174;4.160;2023-04-03T07:26:55;5.50;99.90
18777;DHT22;9517;51.174;4.160;2023-04-03T07:29:23;5.60;99.90
18777;DHT22;9517;51.174;4.160;2023-04-03T07:31:52;5.80;99.90
18777;DHT22;9517;51.174;4.160;2023-04-03T07:34:21;5.80;99.90
18777;DHT22;9517;51.174;4.160;2023-04-03T07:36:49;6.00;99.90
18777;DHT22;9517;51.174;4.160;2023-04-03T07:39:19;6.00;99.90
18777;DHT22;9517;51.174;4.160;2023-04-03T07:41:55;6.10;99.90
18777;DHT22;9517;51.174;4.160;2023-04-03T07:44:36;6.20;99.90
18777;DHT22;9517;51.174;4.160;2023-04-03T07:47:06;6.40;99.90
18777;DHT22;9517;51.174;4.160;2023-04-03T07:49:34;6.60;99.90
18777;DHT22;9517;51.174;4.160;2023-04-03T07:52:05;6.80;99.90
18777;DHT22;9517;51.174;4.160;2023-04-03T07:54:34;6.90;99.90
18777;DHT22;9517;51.174;4.160;2023-04-03T07:57:02;7.00;99.90
18777;DHT22;9517;51.174;4.160;2023-04-03T07:59:43;7.10;99.90
18777;DHT22;9517;51.174;4.160;2023-04-03T08:02:12;7.20;99.90
18777;DHT22;9517;51.174;4.160;2023-04-03T08:04:42;7.30;99.90
18777;DHT22;9517;51.174;4.160;2023-04-03T08:07:09;7.30;99.90
18777;DHT22;9517;51.174;4.160;2023-04-03T08:09:36;7.50;99.90
18777;DHT22;9517;51.174;4.160;2023-04-03T08:12:04;7.60;99.90
18777;DHT22;9517;51.174;4.160;2023-04-03T08:14:31;7.80;99.90
18777;DHT22;9517;51.174;4.160;2023-04-03T08:17:00;7.80;99.90
18777;DHT22;9517;51.174;4.160;2023-04-03T08:19:31;8.00;99.90
18777;DHT22;9517;51.174;4.160;2023-04-03T08:22:16;8.00;99.90
18777;DHT22;9517;51.174;4.160;2023-04-03T08:24:43;7.90;99.90
18777;DHT22;9517;51.174;4.160;2023-04-03T08:27:11;7.90;99.90
18777;DHT22;9517;51.174;4.160;2023-04-03T08:29:38;8.30;99.90
18777;DHT22;9517;51.174;4.160;2023-04-03T08:32:05;8.20;99.90
18777;DHT22;9517;51.174;4.160;2023-04-03T08:34:34;8.30;99.90
18777;DHT22;9517;51.174;4.160;2023-04-03T08:37:02;8.50;99.90
18777;DHT22;9517;51.174;4.160;2023-04-03T08:39:29;8.60;99.90
18777;DHT22;9517;51.174;4.160;2023-04-03T08:41:59;8.70;99.90
18777;DHT22;9517;51.174;4.160;2023-04-03T08:44:39;8.80;99.90
18777;DHT22;9517;51.174;4.160;2023-04-03T08:47:19;8.80;99.90
18777;DHT22;9517;51.174;4.160;2023-04-03T08:49:51;8.60;99.90
18777;DHT22;9517;51.174;4.160;2023-04-03T08:52:25;8.80;99.90
18777;DHT22;9517;51.174;4.160;2023-04-03T08:54:55;8.80;99.90
18777;DHT22;9517;51.174;4.160;2023-04-03T08:57:29;9.00;99.90
18777;DHT22;9517;51.174;4.160;2023-04-03T09:00:18;9.00;99.90
18777;DHT22;9517;51.174;4.160;2023-04-03T09:02:48;9.30;99.90
18777;DHT22;9517;51.174;4.160;2023-04-03T09:05:19;9.20;99.90
18777;DHT22;9517;51.174;4.160;2023-04-03T09:07:51;9.30;99.90
18777;DHT22;9517;51.174;4.160;2023-04-03T09:10:26;9.20;99.90
18777;DHT22;9517;51.174;4.160;2023-04-03T09:13:00;9.30;99.90
18777;DHT22;9517;51.174;4.160;2023-04-03T09:15:30;9.20;99.90
18777;DHT22;9517;51.174;4.160;2023-04-03T09:18:02;9.10;99.90
18777;DHT22;9517;51.174;4.160;2023-04-03T09:20:41;9.30;99.90
18777;DHT22;9517;51.174;4.160;2023-04-03T09:23:18;9.70;99.90
18777;DHT22;9517;51.174;4.160;2023-04-03T09:25:48;9.90;99.90
18777;DHT22;9517;51.174;4.160;2023-04-03T09:28:15;10.10;99.90
18777;DHT22;9517;51.174;4.160;2023-04-03T09:30:42;10.20;99.90
18777;DHT22;9517;51.174;4.160;2023-04-03T09:33:11;10.40;99.90
18777;DHT22;9517;51.174;4.160;2023-04-03T09:35:41;10.20;99.90
18777;DHT22;9517;51.174;4.160;2023-04-03T09:38:19;10.00;99.90
18777;DHT22;9517;51.174;4.160;2023-04-03T09:40:48;9.90;99.90
18777;DHT22;9517;51.174;4.160;2023-04-03T09:43:25;9.80;99.90
18777;DHT22;9517;51.174;4.160;2023-04-03T09:45:53;10.20;99.90
18777;DHT22;9517;51.174;4.160;2023-04-03T09:48:23;10.40;99.90
18777;DHT22;9517;51.174;4.160;2023-04-03T09:51:00;10.60;99.90
18777;DHT22;9517;51.174;4.160;2023-04-03T09:53:32;11.00;99.90
18777;DHT22;9517;51.174;4.160;2023-04-03T09:56:02;10.90;99.90
18777;DHT22;9517;51.174;4.160;2023-04-03T09:58:31;11.10;99.90
18777;DHT22;9517;51.174;4.160;2023-04-03T10:01:01;11.10;99.90
18777;DHT22;9517;51.174;4.160;2023-04-03T10:03:31;11.20;99.90
18777;DHT22;9517;51.174;4.160;2023-04-03T10:06:02;11.10;99.90
18777;DHT22;9517;51.174;4.160;2023-04-03T10:08:30;11.30;99.90
18777;DHT22;9517;51.174;4.160;2023-04-03T10:11:15;11.50;99.90
18777;DHT22;9517;51.174;4.160;2023-04-03T10:14:03;11.80;99.90
18777;DHT22;9517;51.174;4.160;2023-04-03T10:16:37;12.20;99.90
18777;DHT22;9517;51.174;4.160;2023-04-03T10:19:15;12.30;99.90
18777;DHT22;9517;51.174;4.160;2023-04-03T10:21:53;12.50;99.90
18777;DHT22;9517;51.174;4.160;2023-04-03T10:24:27;13.00;99.90
18777;DHT22;9517;51.174;4.160;2023-04-03T10:26:58;13.60;99.90
18777;DHT22;9517;51.174;4.160;2023-04-03T10:29:37;13.80;99.90
18777;DHT22;9517;51.174;4.160;2023-04-03T10:32:16;13.50;99.90
18777;DHT22;9517;51.174;4.160;2023-04-03T10:34:47;13.60;99.90
18777;DHT22;9517;51.174;4.160;2023-04-03T10:37:24;13.90;99.90
18777;DHT22;9517;51.174;4.160;2023-04-03T10:39:56;13.80;99.90
18777;DHT22;9517;51.174;4.160;2023-04-03T10:42:28;13.70;99.90
18777;DHT22;9517;51.174;4.160;2023-04-03T10:45:10;14.10;99.90
18777;DHT22;9517;51.174;4.160;2023-04-03T10:47:48;14.50;99.90
18777;DHT22;9517;51.174;4.160;2023-04-03T10:50:38;14.00;99.90
18777;DHT22;9517;51.174;4.160;2023-04-03T10:53:15;13.90;99.90
18777;DHT22;9517;51.174;4.160;2023-04-03T10:55:50;13.80;99.90
18777;DHT22;9517;51.174;4.160;2023-04-03T10:58:24;14.50;99.90
18777;DHT22;9517;51.174;4.160;2023-04-03T11:00:54;14.40;99.90
18777;DHT22;9517;51.174;4.160;2023-04-03T11:03:29;15.20;99.90
18777;DHT22;9517;51.174;4.160;2023-04-03T11:05:59;15.90;99.90
18777;DHT22;9517;51.174;4.160;2023-04-03T11:08:44;16.80;99.90
18777;DHT22;9517;51.174;4.160;2023-04-03T11:11:14;17.00;99.90
18777;DHT22;9517;51.174;4.160;2023-04-03T11:13:46;17.60;99.90
18777;DHT22;9517;51.174;4.160;2023-04-03T11:16:21;16.60;99.90
18777;DHT22;9517;51.174;4.160;2023-04-03T11:18:54;16.60;99.90
18777;DHT22;9517;51.174;4.160;2023-04-03T11:21:33;17.00;99.90
18777;DHT22;9517;51.174;4.160;2023-04-03T11:24:17;17.70;99.20
18777;DHT22;9517;51.174;4.160;2023-04-03T11:26:49;18.80;99.70
18777;DHT22;9517;51.174;4.160;2023-04-03T11:29:20;19.50;95.90
18777;DHT22;9517;51.174;4.160;2023-04-03T11:32:07;19.40;93.80
18777;DHT22;9517;51.174;4.160;2023-04-03T11:34:40;19.70;94.20
18777;DHT22;9517;51.174;4.160;2023-04-03T11:37:15;20.50;93.00
18777;DHT22;9517;51.174;4.160;2023-04-03T11:39:52;20.40;94.10
18777;DHT22;9517;51.174;4.160;2023-04-03T11:42:37;20.50;91.50
18777;DHT22;9517;51.174;4.160;2023-04-03T11:45:27;20.00;90.50
18777;DHT22;9517;51.174;4.160;2023-04-03T11:47:58;19.70;89.90
18777;DHT22;9517;51.174;4.160;2023-04-03T11:50:39;20.50;87.90
18777;DHT22;9517;51.174;4.160;2023-04-03T11:53:26;19.90;88.50
18777;DHT22;9517;51.174;4.160;2023-04-03T11:56:00;20.00;85.00
18777;DHT22;9517;51.174;4.160;2023-04-03T11:58:32;20.80;82.60
18777;DHT22;9517;51.174;4.160;2023-04-03T12:01:09;20.70;82.60
18777;DHT22;9517;51.174;4.160;2023-04-03T12:09:58;21.20;83.00
18777;DHT22;9517;51.174;4.160;2023-04-03T12:12:55;21.00;80.40
18777;DHT22;9517;51.174;4.160;2023-04-03T12:15:54;20.30;80.50
18777;DHT22;9517;51.174;4.160;2023-04-03T12:19:00;20.40;80.90
18777;DHT22;9517;51.174;4.160;2023-04-03T12:22:07;20.40;82.90
18777;DHT22;9517;51.174;4.160;2023-04-03T12:24:35;20.80;78.10
18777;DHT22;9517;51.174;4.160;2023-04-03T12:27:36;20.30;76.50
18777;DHT22;9517;51.174;4.160;2023-04-03T12:30:25;20.90;76.50
18777;DHT22;9517;51.174;4.160;2023-04-03T12:33:17;21.40;73.50
18777;DHT22;9517;51.174;4.160;2023-04-03T12:35:57;22.10;78.80
18777;DHT22;9517;51.174;4.160;2023-04-03T12:41:25;21.00;71.10
18777;DHT22;9517;51.174;4.160;2023-04-03T12:44:13;20.60;70.90
18777;DHT22;9517;51.174;4.160;2023-04-03T12:46:48;20.60;75.20
18777;DHT22;9517;51.174;4.160;2023-04-03T12:49:35;20.60;73.40
18777;DHT22;9517;51.174;4.160;2023-04-03T12:52:04;21.90;70.30
18777;DHT22;9517;51.174;4.160;2023-04-03T12:54:35;21.70;71.40
18777;DHT22;9517;51.174;4.160;2023-04-03T12:57:12;21.00;69.60
18777;DHT22;9517;51.174;4.160;2023-04-03T12:59:41;21.40;69.20
18777;DHT22;9517;51.174;4.160;2023-04-03T13:02:25;21.80;66.90
18777;DHT22;9517;51.174;4.160;2023-04-03T13:05:08;21.30;66.90
18777;DHT22;9517;51.174;4.160;2023-04-03T13:07:38;21.50;72.50
18777;DHT22;9517;51.174;4.160;2023-04-03T13:10:14;21.80;72.40
18777;DHT22;9517;51.174;4.160;2023-04-03T13:12:48;22.40;66.50
18777;DHT22;9517;51.174;4.160;2023-04-03T13:15:18;22.50;67.60
18777;DHT22;9517;51.174;4.160;2023-04-03T13:17:47;22.50;69.30
18777;DHT22;9517;51.174;4.160;2023-04-03T13:20:21;22.00;65.80
18777;DHT22;9517;51.174;4.160;2023-04-03T13:22:56;21.00;67.20
18777;DHT22;9517;51.174;4.160;2023-04-03T13:25:26;21.80;69.20
18777;DHT22;9517;51.174;4.160;2023-04-03T13:27:55;22.20;63.90
18777;DHT22;9517;51.174;4.160;2023-04-03T13:30:26;22.30;65.20
18777;DHT22;9517;51.174;4.160;2023-04-03T13:32:56;22.00;65.20
18777;DHT22;9517;51.174;4.160;2023-04-03T13:35:36;22.80;65.90
18777;DHT22;9517;51.174;4.160;2023-04-03T13:38:19;22.80;64.10
18777;DHT22;9517;51.174;4.160;2023-04-03T13:40:49;22.30;64.40
18777;DHT22;9517;51.174;4.160;2023-04-03T13:43:19;21.50;64.00
18777;DHT22;9517;51.174;4.160;2023-04-03T13:45:55;20.90;64.90
18777;DHT22;9517;51.174;4.160;2023-04-03T13:48:24;20.90;63.70
18777;DHT22;9517;51.174;4.160;2023-04-03T13:50:54;21.00;68.20
18777;DHT22;9517;51.174;4.160;2023-04-03T13:53:23;21.60;65.50
18777;DHT22;9517;51.174;4.160;2023-04-03T13:56:00;20.80;63.40
18777;DHT22;9517;51.174;4.160;2023-04-03T13:58:34;20.30;66.40
18777;DHT22;9517;51.174;4.160;2023-04-03T14:01:14;20.10;66.00
18777;DHT22;9517;51.174;4.160;2023-04-03T14:03:51;20.10;65.90
18777;DHT22;9517;51.174;4.160;2023-04-03T14:06:19;20.00;63.30
18777;DHT22;9517;51.174;4.160;2023-04-03T14:08:46;20.30;65.10
18777;DHT22;9517;51.174;4.160;2023-04-03T14:11:16;19.90;66.70
18777;DHT22;9517;51.174;4.160;2023-04-03T14:13:44;19.50;68.60
18777;DHT22;9517;51.174;4.160;2023-04-03T14:16:14;20.20;69.00
18777;DHT22;9517;51.174;4.160;2023-04-03T14:18:43;20.80;67.60
18777;DHT22;9517;51.174;4.160;2023-04-03T14:21:14;20.90;66.50
18777;DHT22;9517;51.174;4.160;2023-04-03T14:23:41;21.40;63.90
18777;DHT22;9517;51.174;4.160;2023-04-03T14:26:12;21.00;64.30
18777;DHT22;9517;51.174;4.160;2023-04-03T14:28:39;20.10;66.90
18777;DHT22;9517;51.174;4.160;2023-04-03T14:31:07;20.50;65.30
18777;DHT22;9517;51.174;4.160;2023-04-03T14:33:34;20.50;63.10
18777;DHT22;9517;51.174;4.160;2023-04-03T14:36:12;20.10;65.00
18777;DHT22;9517;51.174;4.160;2023-04-03T14:38:41;20.20;66.90
18777;DHT22;9517;51.174;4.160;2023-04-03T14:41:10;20.30;65.00
18777;DHT22;9517;51.174;4.160;2023-04-03T14:43:38;20.70;64.30
18777;DHT22;9517;51.174;4.160;2023-04-03T14:46:08;20.70;68.00
18777;DHT22;9517;51.174;4.160;2023-04-03T14:48:38;21.60;66.80
18777;DHT22;9517;51.174;4.160;2023-04-03T14:51:05;20.70;63.90
18777;DHT22;9517;51.174;4.160;2023-04-03T14:53:34;20.40;64.30
18777;DHT22;9517;51.174;4.160;2023-04-03T14:56:04;20.30;64.20
18777;DHT22;9517;51.174;4.160;2023-04-03T14:58:31;19.60;63.00
18777;DHT22;9517;51.174;4.160;2023-04-03T15:00:58;20.20;68.30
18777;DHT22;9517;51.174;4.160;2023-04-03T15:03:25;19.90;70.60
18777;DHT22;9517;51.174;4.160;2023-04-03T15:05:53;20.40;68.30
18777;DHT22;9517;51.174;4.160;2023-04-03T15:08:22;20.50;71.70
18777;DHT22;9517;51.174;4.160;2023-04-03T15:10:51;20.40;65.90
18777;DHT22;9517;51.174;4.160;2023-04-03T15:13:21;21.10;66.70
18777;DHT22;9517;51.174;4.160;2023-04-03T15:15:49;21.10;65.50
18777;DHT22;9517;51.174;4.160;2023-04-03T15:18:19;20.60;66.70
18777;DHT22;9517;51.174;4.160;2023-04-03T15:20:48;20.70;63.50
18777;DHT22;9517;51.174;4.160;2023-04-03T15:23:16;20.00;66.80
18777;DHT22;9517;51.174;4.160;2023-04-03T15:25:43;19.60;67.30
18777;DHT22;9517;51.174;4.160;2023-04-03T15:28:18;19.70;67.50
18777;DHT22;9517;51.174;4.160;2023-04-03T15:30:46;20.00;68.00
18777;DHT22;9517;51.174;4.160;2023-04-03T15:33:13;19.80;65.40
18777;DHT22;9517;51.174;4.160;2023-04-03T15:35:41;20.10;67.60
18777;DHT22;9517;51.174;4.160;2023-04-03T15:38:08;20.10;66.00
18777;DHT22;9517;51.174;4.160;2023-04-03T15:40:35;20.30;70.40
18777;DHT22;9517;51.174;4.160;2023-04-03T15:43:03;20.60;63.50
18777;DHT22;9517;51.174;4.160;2023-04-03T15:45:32;20.20;66.90
18777;DHT22;9517;51.174;4.160;2023-04-03T15:48:01;19.30;65.90
18777;DHT22;9517;51.174;4.160;2023-04-03T15:50:28;20.10;67.80
18777;DHT22;9517;51.174;4.160;2023-04-03T15:52:55;20.00;67.70
18777;DHT22;9517;51.174;4.160;2023-04-03T15:55:25;19.90;66.00
18777;DHT22;9517;51.174;4.160;2023-04-03T15:57:52;19.80;66.40
18777;DHT22;9517;51.174;4.160;2023-04-03T16:00:20;19.60;67.50
18777;DHT22;9517;51.174;4.160;2023-04-03T16:02:51;19.20;63.30
18777;DHT22;9517;51.174;4.160;2023-04-03T16:05:19;18.80;66.40
18777;DHT22;9517;51.174;4.160;2023-04-03T16:07:47;18.60;66.90
18777;DHT22;9517;51.174;4.160;2023-04-03T16:10:16;18.00;64.30
18777;DHT22;9517;51.174;4.160;2023-04-03T16:12:52;17.80;67.40
18777;DHT22;9517;51.174;4.160;2023-04-03T16:15:19;17.80;67.50
18777;DHT22;9517;51.174;4.160;2023-04-03T16:17:48;17.80;68.20
18777;DHT22;9517;51.174;4.160;2023-04-03T16:20:15;17.50;70.70
18777;DHT22;9517;51.174;4.160;2023-04-03T16:22:44;17.90;69.50
18777;DHT22;9517;51.174;4.160;2023-04-03T16:25:11;17.80;68.80
18777;DHT22;9517;51.174;4.160;2023-04-03T16:27:39;17.20;69.00
18777;DHT22;9517;51.174;4.160;2023-04-03T16:30:07;17.30;69.40